This is the latest recevied weather packets stored in our database for station/object K5NAN. If no packets are shown the sender has not sent any weather packets the latest 10 day(s).
| Time | Temp. | Humidity | Pressure | Rain* | Wind** | Luminosity | Snow |
|---|---|---|---|---|---|---|---|
| 1778102633 | 13.89° C | 85% | 1012.6 hPa | 0 mm | - | 124 W/m² | - |
| 1778102328 | 13.89° C | 85% | 1012.3 hPa | 0 mm | - | 157 W/m² | - |
| 1778102024 | 13.89° C | 85% | 1012.3 hPa | 0 mm | - | 153 W/m² | - |
| 1778101722 | 14.44° C | 85% | 1012.4 hPa | 0 mm | - | 189 W/m² | - |
| 1778101419 | 14.44° C | 85% | 1012.3 hPa | 0 mm | - | 233 W/m² | - |
| 1778101116 | 14.44° C | 84% | 1012.6 hPa | 0 mm | - | 222 W/m² | - |
| 1778100812 | 14.44° C | 85% | 1012.4 hPa | 0 mm | - | 246 W/m² | - |
| 1778100508 | 14.44° C | 86% | 1012.5 hPa | 0 mm | - | 289 W/m² | - |
| 1778100206 | 14.44° C | 86% | 1012.4 hPa | 0 mm | - | 202 W/m² | - |
| 1778099904 | 14.44° C | 86% | 1012.4 hPa | 0 mm | - | 258 W/m² | - |
| 1778099601 | 13.89° C | 87% | 1012.7 hPa | 0 mm | - | 292 W/m² | - |
| 1778099297 | 13.89° C | 87% | 1012.8 hPa | 0 mm | - | 278 W/m² | - |
| 1778098995 | 13.89° C | 88% | 1013.4 hPa | 0 mm | - | 173 W/m² | - |
| 1778098691 | 13.33° C | 88% | 1013.5 hPa | 0 mm | - | 137 W/m² | - |
| 1778098388 | 13.33° C | 88% | 1013.4 hPa | 0 mm | - | 118 W/m² | - |
| 1778098085 | 13.33° C | 88% | 1013.4 hPa | 0 mm | - | 152 W/m² | - |
| 1778097781 | 13.33° C | 88% | 1013.4 hPa | 0 mm | - | 155 W/m² | - |
| 1778097478 | 13.89° C | 89% | 1012.8 hPa | 0 mm | - | 251 W/m² | - |
| 1778097175 | 13.33° C | 89% | 1012.6 hPa | 0 mm | - | 328 W/m² | - |
| 1778096872 | 13.33° C | 90% | 1012.7 hPa | 0 mm | - | 331 W/m² | - |
| 1778096568 | 12.78° C | 90% | 1012.6 hPa | 0 mm | - | 248 W/m² | - |
| 1778096266 | 12.78° C | 90% | 1013 hPa | 0 mm | - | 115 W/m² | - |
| 1778095962 | 12.78° C | 90% | 1013.1 hPa | 0 mm | - | 85 W/m² | - |
| 1778095658 | 12.78° C | 90% | 1013.6 hPa | 0 mm | - | 66 W/m² | - |
| 1778095355 | 12.78° C | 90% | 1013.3 hPa | 0 mm | - | 79 W/m² | - |
* Rain latest hour (hover to see other rain measurements)
** Current wind speed in m/s (hover to see current wind gust speed)